sensor_id;sensor_type;location;lat;lon;timestamp;P1;durP1;ratioP1;P2;durP2;ratioP2
52964;SDS011;42923;53.220;6.528;2024-03-22T00:00:07;27.80;;;25.20;;
52964;SDS011;42923;53.220;6.528;2024-03-22T00:02:39;27.50;;;24.80;;
52964;SDS011;42923;53.220;6.528;2024-03-22T00:05:05;29.13;;;26.17;;
52964;SDS011;42923;53.220;6.528;2024-03-22T00:07:30;27.98;;;25.15;;
52964;SDS011;42923;53.220;6.528;2024-03-22T00:09:56;29.02;;;26.13;;
52964;SDS011;42923;53.220;6.528;2024-03-22T00:12:22;28.02;;;25.35;;
52964;SDS011;42923;53.220;6.528;2024-03-22T00:14:48;28.38;;;25.40;;
52964;SDS011;42923;53.220;6.528;2024-03-22T00:17:16;28.40;;;25.63;;
52964;SDS011;42923;53.220;6.528;2024-03-22T00:19:42;27.63;;;24.83;;
52964;SDS011;42923;53.220;6.528;2024-03-22T00:22:08;27.25;;;24.52;;
52964;SDS011;42923;53.220;6.528;2024-03-22T00:24:34;28.70;;;25.98;;
52964;SDS011;42923;53.220;6.528;2024-03-22T00:26:59;27.90;;;25.10;;
52964;SDS011;42923;53.220;6.528;2024-03-22T00:29:25;27.15;;;24.48;;
52964;SDS011;42923;53.220;6.528;2024-03-22T00:31:52;30.30;;;27.30;;
52964;SDS011;42923;53.220;6.528;2024-03-22T00:34:17;28.93;;;26.13;;
52964;SDS011;42923;53.220;6.528;2024-03-22T00:36:44;28.45;;;25.63;;
52964;SDS011;42923;53.220;6.528;2024-03-22T00:39:10;27.53;;;24.73;;
52964;SDS011;42923;53.220;6.528;2024-03-22T00:41:36;29.50;;;26.57;;
52964;SDS011;42923;53.220;6.528;2024-03-22T00:44:01;30.10;;;27.20;;
52964;SDS011;42923;53.220;6.528;2024-03-22T00:46:27;31.73;;;28.63;;
52964;SDS011;42923;53.220;6.528;2024-03-22T00:48:53;30.55;;;27.38;;
52964;SDS011;42923;53.220;6.528;2024-03-22T00:51:18;29.33;;;26.43;;
52964;SDS011;42923;53.220;6.528;2024-03-22T00:53:44;32.13;;;28.67;;
52964;SDS011;42923;53.220;6.528;2024-03-22T00:56:10;31.48;;;28.30;;
52964;SDS011;42923;53.220;6.528;2024-03-22T00:58:36;32.63;;;29.38;;
52964;SDS011;42923;53.220;6.528;2024-03-22T01:01:01;33.83;;;30.42;;
52964;SDS011;42923;53.220;6.528;2024-03-22T01:03:27;32.63;;;29.27;;
52964;SDS011;42923;53.220;6.528;2024-03-22T01:05:53;34.67;;;30.93;;
52964;SDS011;42923;53.220;6.528;2024-03-22T01:08:18;34.37;;;30.93;;
52964;SDS011;42923;53.220;6.528;2024-03-22T01:10:44;35.88;;;32.17;;
52964;SDS011;42923;53.220;6.528;2024-03-22T01:13:10;34.87;;;31.27;;
52964;SDS011;42923;53.220;6.528;2024-03-22T01:15:36;33.75;;;30.48;;
52964;SDS011;42923;53.220;6.528;2024-03-22T01:18:02;34.80;;;31.17;;
52964;SDS011;42923;53.220;6.528;2024-03-22T01:20:27;36.75;;;32.78;;
52964;SDS011;42923;53.220;6.528;2024-03-22T01:22:53;36.58;;;32.75;;
52964;SDS011;42923;53.220;6.528;2024-03-22T01:25:19;37.10;;;33.23;;
52964;SDS011;42923;53.220;6.528;2024-03-22T01:27:44;38.87;;;34.87;;
52964;SDS011;42923;53.220;6.528;2024-03-22T01:30:10;39.23;;;35.17;;
52964;SDS011;42923;53.220;6.528;2024-03-22T01:32:36;37.17;;;33.27;;
52964;SDS011;42923;53.220;6.528;2024-03-22T01:35:02;39.55;;;35.00;;
52964;SDS011;42923;53.220;6.528;2024-03-22T01:37:29;39.03;;;34.72;;
52964;SDS011;42923;53.220;6.528;2024-03-22T01:39:54;39.30;;;35.22;;
52964;SDS011;42923;53.220;6.528;2024-03-22T01:42:20;38.40;;;34.35;;
52964;SDS011;42923;53.220;6.528;2024-03-22T01:44:46;38.58;;;33.67;;
52964;SDS011;42923;53.220;6.528;2024-03-22T01:47:11;40.08;;;35.75;;
52964;SDS011;42923;53.220;6.528;2024-03-22T01:49:37;40.35;;;36.05;;
52964;SDS011;42923;53.220;6.528;2024-03-22T01:52:03;41.08;;;36.00;;
52964;SDS011;42923;53.220;6.528;2024-03-22T01:54:29;40.63;;;36.25;;
52964;SDS011;42923;53.220;6.528;2024-03-22T01:56:55;42.97;;;38.27;;
52964;SDS011;42923;53.220;6.528;2024-03-22T01:59:21;42.55;;;37.83;;
52964;SDS011;42923;53.220;6.528;2024-03-22T02:01:47;43.28;;;37.97;;
52964;SDS011;42923;53.220;6.528;2024-03-22T02:04:14;41.85;;;37.25;;
52964;SDS011;42923;53.220;6.528;2024-03-22T02:06:40;43.92;;;39.17;;
52964;SDS011;42923;53.220;6.528;2024-03-22T02:09:06;44.05;;;39.38;;
52964;SDS011;42923;53.220;6.528;2024-03-22T02:11:34;46.93;;;39.63;;
52964;SDS011;42923;53.220;6.528;2024-03-22T02:14:03;45.53;;;39.13;;
52964;SDS011;42923;53.220;6.528;2024-03-22T02:16:29;42.42;;;36.88;;
52964;SDS011;42923;53.220;6.528;2024-03-22T02:18:55;45.95;;;39.35;;
52964;SDS011;42923;53.220;6.528;2024-03-22T02:21:21;43.85;;;36.95;;
52964;SDS011;42923;53.220;6.528;2024-03-22T02:23:46;44.60;;;39.63;;
52964;SDS011;42923;53.220;6.528;2024-03-22T02:26:12;45.40;;;39.80;;
52964;SDS011;42923;53.220;6.528;2024-03-22T02:28:38;47.03;;;39.35;;
52964;SDS011;42923;53.220;6.528;2024-03-22T02:31:03;49.95;;;40.30;;
52964;SDS011;42923;53.220;6.528;2024-03-22T02:33:30;46.47;;;39.97;;
52964;SDS011;42923;53.220;6.528;2024-03-22T02:35:55;47.67;;;40.45;;
52964;SDS011;42923;53.220;6.528;2024-03-22T02:38:21;51.83;;;41.53;;
52964;SDS011;42923;53.220;6.528;2024-03-22T02:40:48;50.53;;;42.63;;
52964;SDS011;42923;53.220;6.528;2024-03-22T02:43:14;50.57;;;41.13;;
52964;SDS011;42923;53.220;6.528;2024-03-22T02:45:42;51.93;;;42.07;;
52964;SDS011;42923;53.220;6.528;2024-03-22T02:48:08;51.57;;;41.93;;
52964;SDS011;42923;53.220;6.528;2024-03-22T02:50:34;55.83;;;43.43;;
52964;SDS011;42923;53.220;6.528;2024-03-22T02:53:03;53.88;;;42.33;;
52964;SDS011;42923;53.220;6.528;2024-03-22T02:55:30;55.10;;;43.28;;
52964;SDS011;42923;53.220;6.528;2024-03-22T02:57:56;56.95;;;44.65;;
52964;SDS011;42923;53.220;6.528;2024-03-22T03:00:23;51.80;;;43.00;;
52964;SDS011;42923;53.220;6.528;2024-03-22T03:02:49;53.67;;;41.90;;
52964;SDS011;42923;53.220;6.528;2024-03-22T03:05:15;56.60;;;42.80;;
52964;SDS011;42923;53.220;6.528;2024-03-22T03:07:41;51.83;;;41.60;;
52964;SDS011;42923;53.220;6.528;2024-03-22T03:10:07;55.95;;;43.55;;
52964;SDS011;42923;53.220;6.528;2024-03-22T03:12:32;54.88;;;41.08;;
52964;SDS011;42923;53.220;6.528;2024-03-22T03:14:58;55.13;;;42.53;;
52964;SDS011;42923;53.220;6.528;2024-03-22T03:17:24;60.37;;;44.90;;
52964;SDS011;42923;53.220;6.528;2024-03-22T03:19:49;60.33;;;44.93;;
52964;SDS011;42923;53.220;6.528;2024-03-22T03:22:15;56.70;;;43.28;;
52964;SDS011;42923;53.220;6.528;2024-03-22T03:24:41;58.08;;;43.33;;
52964;SDS011;42923;53.220;6.528;2024-03-22T03:27:07;56.78;;;44.33;;
52964;SDS011;42923;53.220;6.528;2024-03-22T03:29:32;60.17;;;44.20;;
52964;SDS011;42923;53.220;6.528;2024-03-22T03:31:58;63.67;;;46.58;;
52964;SDS011;42923;53.220;6.528;2024-03-22T03:34:24;50.80;;;37.60;;
52964;SDS011;42923;53.220;6.528;2024-03-22T03:36:50;57.80;;;44.30;;
52964;SDS011;42923;53.220;6.528;2024-03-22T03:39:15;60.23;;;42.80;;
52964;SDS011;42923;53.220;6.528;2024-03-22T03:41:41;60.70;;;43.28;;
52964;SDS011;42923;53.220;6.528;2024-03-22T03:44:07;54.60;;;41.40;;
52964;SDS011;42923;53.220;6.528;2024-03-22T03:46:32;62.97;;;45.80;;
52964;SDS011;42923;53.220;6.528;2024-03-22T03:48:58;64.17;;;44.00;;
52964;SDS011;42923;53.220;6.528;2024-03-22T03:51:24;61.95;;;44.50;;
52964;SDS011;42923;53.220;6.528;2024-03-22T03:53:49;63.97;;;44.25;;
52964;SDS011;42923;53.220;6.528;2024-03-22T03:56:15;61.92;;;44.60;;
52964;SDS011;42923;53.220;6.528;2024-03-22T03:58:41;61.73;;;45.27;;
52964;SDS011;42923;53.220;6.528;2024-03-22T04:01:07;56.57;;;41.90;;
52964;SDS011;42923;53.220;6.528;2024-03-22T04:03:33;65.85;;;45.15;;
52964;SDS011;42923;53.220;6.528;2024-03-22T04:05:59;64.03;;;42.13;;
52964;SDS011;42923;53.220;6.528;2024-03-22T04:08:25;62.42;;;44.88;;
52964;SDS011;42923;53.220;6.528;2024-03-22T04:10:52;61.90;;;43.13;;
52964;SDS011;42923;53.220;6.528;2024-03-22T04:13:18;61.30;;;43.10;;
52964;SDS011;42923;53.220;6.528;2024-03-22T04:15:44;60.95;;;43.63;;
52964;SDS011;42923;53.220;6.528;2024-03-22T04:18:09;61.05;;;43.13;;
52964;SDS011;42923;53.220;6.528;2024-03-22T04:20:35;53.92;;;39.67;;
52964;SDS011;42923;53.220;6.528;2024-03-22T04:23:01;61.73;;;43.33;;
52964;SDS011;42923;53.220;6.528;2024-03-22T04:25:26;62.67;;;43.33;;
52964;SDS011;42923;53.220;6.528;2024-03-22T04:27:52;59.75;;;41.75;;
52964;SDS011;42923;53.220;6.528;2024-03-22T04:30:18;58.35;;;40.83;;
52964;SDS011;42923;53.220;6.528;2024-03-22T04:32:45;60.15;;;43.00;;
52964;SDS011;42923;53.220;6.528;2024-03-22T04:35:12;54.65;;;41.63;;
52964;SDS011;42923;53.220;6.528;2024-03-22T04:37:37;57.15;;;41.22;;
52964;SDS011;42923;53.220;6.528;2024-03-22T04:40:03;60.92;;;41.50;;
52964;SDS011;42923;53.220;6.528;2024-03-22T04:42:30;61.92;;;42.55;;
52964;SDS011;42923;53.220;6.528;2024-03-22T04:44:55;60.43;;;42.83;;
52964;SDS011;42923;53.220;6.528;2024-03-22T04:47:22;56.85;;;41.53;;
52964;SDS011;42923;53.220;6.528;2024-03-22T04:49:49;57.85;;;41.80;;
52964;SDS011;42923;53.220;6.528;2024-03-22T04:52:14;57.67;;;42.53;;
52964;SDS011;42923;53.220;6.528;2024-03-22T04:54:40;56.03;;;41.73;;
52964;SDS011;42923;53.220;6.528;2024-03-22T04:57:06;56.77;;;41.10;;
52964;SDS011;42923;53.220;6.528;2024-03-22T04:59:32;50.63;;;35.80;;
52964;SDS011;42923;53.220;6.528;2024-03-22T05:01:57;54.30;;;40.08;;
52964;SDS011;42923;53.220;6.528;2024-03-22T05:04:23;57.92;;;41.28;;
52964;SDS011;42923;53.220;6.528;2024-03-22T05:06:49;58.47;;;42.30;;
52964;SDS011;42923;53.220;6.528;2024-03-22T05:09:14;52.37;;;38.13;;
52964;SDS011;42923;53.220;6.528;2024-03-22T05:11:40;60.17;;;40.07;;
52964;SDS011;42923;53.220;6.528;2024-03-22T05:14:06;56.00;;;40.47;;
52964;SDS011;42923;53.220;6.528;2024-03-22T05:16:32;53.00;;;37.67;;
52964;SDS011;42923;53.220;6.528;2024-03-22T05:18:58;52.30;;;38.58;;
52964;SDS011;42923;53.220;6.528;2024-03-22T05:21:24;48.00;;;36.58;;
52964;SDS011;42923;53.220;6.528;2024-03-22T05:23:49;50.97;;;38.37;;
52964;SDS011;42923;53.220;6.528;2024-03-22T05:26:15;49.15;;;38.65;;
52964;SDS011;42923;53.220;6.528;2024-03-22T05:28:41;53.33;;;38.33;;
52964;SDS011;42923;53.220;6.528;2024-03-22T05:31:07;58.25;;;37.63;;
52964;SDS011;42923;53.220;6.528;2024-03-22T05:33:33;50.10;;;35.72;;
52964;SDS011;42923;53.220;6.528;2024-03-22T05:35:59;44.42;;;32.60;;
52964;SDS011;42923;53.220;6.528;2024-03-22T05:38:24;48.70;;;35.83;;
52964;SDS011;42923;53.220;6.528;2024-03-22T05:40:50;43.50;;;32.90;;
52964;SDS011;42923;53.220;6.528;2024-03-22T05:43:16;54.57;;;35.67;;
52964;SDS011;42923;53.220;6.528;2024-03-22T05:45:41;51.40;;;35.85;;
52964;SDS011;42923;53.220;6.528;2024-03-22T05:48:07;47.70;;;33.83;;
52964;SDS011;42923;53.220;6.528;2024-03-22T05:50:33;55.45;;;35.40;;
52964;SDS011;42923;53.220;6.528;2024-03-22T05:52:58;47.90;;;35.22;;
52964;SDS011;42923;53.220;6.528;2024-03-22T05:55:24;59.63;;;36.27;;
52964;SDS011;42923;53.220;6.528;2024-03-22T05:57:52;52.72;;;36.03;;
52964;SDS011;42923;53.220;6.528;2024-03-22T06:00:18;57.30;;;36.23;;
52964;SDS011;42923;53.220;6.528;2024-03-22T06:02:44;58.80;;;36.08;;
52964;SDS011;42923;53.220;6.528;2024-03-22T06:05:09;52.47;;;33.38;;
52964;SDS011;42923;53.220;6.528;2024-03-22T06:07:35;58.90;;;37.63;;
52964;SDS011;42923;53.220;6.528;2024-03-22T06:10:07;53.13;;;35.77;;
52964;SDS011;42923;53.220;6.528;2024-03-22T06:12:34;53.88;;;35.92;;
52964;SDS011;42923;53.220;6.528;2024-03-22T06:15:01;43.45;;;29.45;;
52964;SDS011;42923;53.220;6.528;2024-03-22T06:17:31;47.10;;;31.20;;
52964;SDS011;42923;53.220;6.528;2024-03-22T06:19:58;43.80;;;29.98;;
52964;SDS011;42923;53.220;6.528;2024-03-22T06:22:24;39.88;;;28.30;;
52964;SDS011;42923;53.220;6.528;2024-03-22T06:24:50;42.10;;;28.67;;
52964;SDS011;42923;53.220;6.528;2024-03-22T06:27:16;39.53;;;26.77;;
52964;SDS011;42923;53.220;6.528;2024-03-22T06:29:42;38.00;;;25.23;;
52964;SDS011;42923;53.220;6.528;2024-03-22T06:32:08;39.10;;;24.95;;
52964;SDS011;42923;53.220;6.528;2024-03-22T06:34:33;39.03;;;23.75;;
52964;SDS011;42923;53.220;6.528;2024-03-22T06:37:00;32.55;;;21.60;;
52964;SDS011;42923;53.220;6.528;2024-03-22T06:39:25;37.88;;;23.17;;
52964;SDS011;42923;53.220;6.528;2024-03-22T06:41:51;36.78;;;23.50;;
52964;SDS011;42923;53.220;6.528;2024-03-22T06:44:17;35.40;;;22.00;;
52964;SDS011;42923;53.220;6.528;2024-03-22T06:46:42;37.80;;;23.00;;
52964;SDS011;42923;53.220;6.528;2024-03-22T06:49:08;40.00;;;24.40;;
52964;SDS011;42923;53.220;6.528;2024-03-22T06:51:34;40.00;;;25.42;;
52964;SDS011;42923;53.220;6.528;2024-03-22T06:53:59;34.17;;;23.50;;
52964;SDS011;42923;53.220;6.528;2024-03-22T06:56:25;36.03;;;23.05;;
52964;SDS011;42923;53.220;6.528;2024-03-22T06:58:51;37.47;;;23.00;;
52964;SDS011;42923;53.220;6.528;2024-03-22T07:01:16;32.20;;;19.53;;
52964;SDS011;42923;53.220;6.528;2024-03-22T07:03:42;32.93;;;20.73;;
52964;SDS011;42923;53.220;6.528;2024-03-22T07:06:10;33.00;;;19.30;;
52964;SDS011;42923;53.220;6.528;2024-03-22T07:08:36;29.63;;;20.13;;
52964;SDS011;42923;53.220;6.528;2024-03-22T07:11:05;28.40;;;19.07;;
52964;SDS011;42923;53.220;6.528;2024-03-22T07:13:31;31.80;;;20.50;;
52964;SDS011;42923;53.220;6.528;2024-03-22T07:15:57;32.80;;;20.52;;
52964;SDS011;42923;53.220;6.528;2024-03-22T07:18:23;34.70;;;21.40;;
52964;SDS011;42923;53.220;6.528;2024-03-22T07:20:48;32.17;;;20.27;;
52964;SDS011;42923;53.220;6.528;2024-03-22T07:23:14;32.83;;;20.95;;
52964;SDS011;42923;53.220;6.528;2024-03-22T07:25:40;33.58;;;21.08;;
52964;SDS011;42923;53.220;6.528;2024-03-22T07:28:08;33.35;;;21.20;;
52964;SDS011;42923;53.220;6.528;2024-03-22T07:30:33;33.10;;;19.95;;
52964;SDS011;42923;53.220;6.528;2024-03-22T07:33:00;34.75;;;22.00;;
52964;SDS011;42923;53.220;6.528;2024-03-22T07:35:26;33.77;;;21.97;;
52964;SDS011;42923;53.220;6.528;2024-03-22T07:37:52;35.50;;;22.57;;
52964;SDS011;42923;53.220;6.528;2024-03-22T07:40:18;33.37;;;22.23;;
52964;SDS011;42923;53.220;6.528;2024-03-22T07:42:45;36.28;;;20.85;;
52964;SDS011;42923;53.220;6.528;2024-03-22T07:45:11;37.08;;;21.63;;
52964;SDS011;42923;53.220;6.528;2024-03-22T07:47:36;37.17;;;22.43;;
52964;SDS011;42923;53.220;6.528;2024-03-22T07:50:03;36.88;;;22.52;;
52964;SDS011;42923;53.220;6.528;2024-03-22T07:52:29;38.03;;;23.00;;
52964;SDS011;42923;53.220;6.528;2024-03-22T07:54:55;36.40;;;22.27;;
52964;SDS011;42923;53.220;6.528;2024-03-22T07:57:21;29.67;;;17.97;;
52964;SDS011;42923;53.220;6.528;2024-03-22T07:59:48;35.50;;;20.00;;
52964;SDS011;42923;53.220;6.528;2024-03-22T08:02:14;30.40;;;20.30;;
52964;SDS011;42923;53.220;6.528;2024-03-22T08:04:39;32.73;;;20.40;;
52964;SDS011;42923;53.220;6.528;2024-03-22T08:07:05;33.38;;;20.77;;
52964;SDS011;42923;53.220;6.528;2024-03-22T08:09:31;35.20;;;19.83;;
52964;SDS011;42923;53.220;6.528;2024-03-22T08:11:56;32.90;;;20.17;;
52964;SDS011;42923;53.220;6.528;2024-03-22T08:14:22;33.25;;;19.40;;
52964;SDS011;42923;53.220;6.528;2024-03-22T08:16:48;33.37;;;20.13;;
52964;SDS011;42923;53.220;6.528;2024-03-22T08:19:14;31.33;;;19.73;;
52964;SDS011;42923;53.220;6.528;2024-03-22T08:21:39;28.38;;;17.35;;
52964;SDS011;42923;53.220;6.528;2024-03-22T08:24:05;22.30;;;14.68;;
52964;SDS011;42923;53.220;6.528;2024-03-22T08:26:31;31.10;;;18.88;;
52964;SDS011;42923;53.220;6.528;2024-03-22T08:28:57;28.30;;;17.52;;
52964;SDS011;42923;53.220;6.528;2024-03-22T08:31:22;29.70;;;18.05;;
52964;SDS011;42923;53.220;6.528;2024-03-22T08:33:51;28.33;;;17.92;;
52964;SDS011;42923;53.220;6.528;2024-03-22T08:36:17;25.75;;;16.73;;
52964;SDS011;42923;53.220;6.528;2024-03-22T08:38:43;22.25;;;15.38;;
52964;SDS011;42923;53.220;6.528;2024-03-22T08:41:08;22.52;;;15.45;;
52964;SDS011;42923;53.220;6.528;2024-03-22T08:43:34;20.85;;;15.13;;
52964;SDS011;42923;53.220;6.528;2024-03-22T08:45:59;20.80;;;15.20;;
52964;SDS011;42923;53.220;6.528;2024-03-22T08:48:25;19.13;;;14.20;;
52964;SDS011;42923;53.220;6.528;2024-03-22T08:50:51;20.05;;;13.75;;
52964;SDS011;42923;53.220;6.528;2024-03-22T08:53:17;19.58;;;13.30;;
52964;SDS011;42923;53.220;6.528;2024-03-22T08:55:46;17.23;;;12.18;;
52964;SDS011;42923;53.220;6.528;2024-03-22T08:58:13;13.15;;;10.52;;
52964;SDS011;42923;53.220;6.528;2024-03-22T09:00:40;17.08;;;11.38;;
52964;SDS011;42923;53.220;6.528;2024-03-22T09:03:06;13.50;;;10.30;;
52964;SDS011;42923;53.220;6.528;2024-03-22T09:05:32;14.70;;;11.32;;
52964;SDS011;42923;53.220;6.528;2024-03-22T09:07:58;12.20;;;9.43;;
52964;SDS011;42923;53.220;6.528;2024-03-22T09:10:25;13.38;;;10.13;;
52964;SDS011;42923;53.220;6.528;2024-03-22T09:12:51;16.70;;;11.82;;
52964;SDS011;42923;53.220;6.528;2024-03-22T09:15:17;15.77;;;11.37;;
52964;SDS011;42923;53.220;6.528;2024-03-22T09:17:43;17.13;;;11.53;;
52964;SDS011;42923;53.220;6.528;2024-03-22T09:20:09;13.32;;;10.07;;
52964;SDS011;42923;53.220;6.528;2024-03-22T09:22:35;15.60;;;11.52;;
52964;SDS011;42923;53.220;6.528;2024-03-22T09:25:01;14.68;;;10.65;;
52964;SDS011;42923;53.220;6.528;2024-03-22T09:27:27;12.73;;;9.93;;
52964;SDS011;42923;53.220;6.528;2024-03-22T09:29:52;15.13;;;10.90;;
52964;SDS011;42923;53.220;6.528;2024-03-22T09:32:18;17.37;;;11.90;;
52964;SDS011;42923;53.220;6.528;2024-03-22T09:34:44;14.30;;;10.38;;
52964;SDS011;42923;53.220;6.528;2024-03-22T09:37:10;16.33;;;11.33;;
52964;SDS011;42923;53.220;6.528;2024-03-22T09:39:36;16.43;;;10.43;;
52964;SDS011;42923;53.220;6.528;2024-03-22T09:42:01;15.32;;;11.23;;
52964;SDS011;42923;53.220;6.528;2024-03-22T09:44:31;17.05;;;11.88;;
52964;SDS011;42923;53.220;6.528;2024-03-22T09:46:58;17.40;;;11.57;;
52964;SDS011;42923;53.220;6.528;2024-03-22T09:49:24;17.73;;;11.30;;
52964;SDS011;42923;53.220;6.528;2024-03-22T09:51:51;11.40;;;8.63;;
52964;SDS011;42923;53.220;6.528;2024-03-22T09:54:17;15.35;;;10.65;;
52964;SDS011;42923;53.220;6.528;2024-03-22T09:56:43;14.30;;;9.97;;
52964;SDS011;42923;53.220;6.528;2024-03-22T09:59:11;10.20;;;8.67;;
52964;SDS011;42923;53.220;6.528;2024-03-22T10:01:37;13.57;;;9.43;;
52964;SDS011;42923;53.220;6.528;2024-03-22T10:04:05;11.43;;;8.68;;
52964;SDS011;42923;53.220;6.528;2024-03-22T10:06:30;10.18;;;8.05;;
52964;SDS011;42923;53.220;6.528;2024-03-22T10:09:00;10.85;;;8.10;;
52964;SDS011;42923;53.220;6.528;2024-03-22T10:11:26;10.07;;;7.78;;
52964;SDS011;42923;53.220;6.528;2024-03-22T10:13:52;9.80;;;7.85;;
52964;SDS011;42923;53.220;6.528;2024-03-22T10:16:20;10.15;;;7.35;;
52964;SDS011;42923;53.220;6.528;2024-03-22T10:18:47;9.05;;;7.32;;
52964;SDS011;42923;53.220;6.528;2024-03-22T10:21:16;10.40;;;7.33;;
52964;SDS011;42923;53.220;6.528;2024-03-22T10:23:46;8.32;;;6.70;;
52964;SDS011;42923;53.220;6.528;2024-03-22T10:26:13;8.20;;;6.47;;
52964;SDS011;42923;53.220;6.528;2024-03-22T10:28:46;9.10;;;6.55;;
52964;SDS011;42923;53.220;6.528;2024-03-22T10:31:12;7.50;;;6.05;;
52964;SDS011;42923;53.220;6.528;2024-03-22T10:33:40;7.45;;;5.50;;
52964;SDS011;42923;53.220;6.528;2024-03-22T10:36:06;6.40;;;5.40;;
52964;SDS011;42923;53.220;6.528;2024-03-22T10:38:33;6.90;;;5.40;;
52964;SDS011;42923;53.220;6.528;2024-03-22T10:41:03;6.75;;;5.53;;
52964;SDS011;42923;53.220;6.528;2024-03-22T10:43:30;6.55;;;5.03;;
52964;SDS011;42923;53.220;6.528;2024-03-22T10:45:58;6.15;;;4.47;;
52964;SDS011;42923;53.220;6.528;2024-03-22T10:48:27;7.03;;;5.15;;
52964;SDS011;42923;53.220;6.528;2024-03-22T10:51:00;5.28;;;3.80;;
52964;SDS011;42923;53.220;6.528;2024-03-22T10:53:27;6.03;;;4.53;;
52964;SDS011;42923;53.220;6.528;2024-03-22T10:55:56;4.70;;;4.10;;
52964;SDS011;42923;53.220;6.528;2024-03-22T10:58:26;6.00;;;4.50;;
52964;SDS011;42923;53.220;6.528;2024-03-22T11:00:52;5.70;;;3.70;;
52964;SDS011;42923;53.220;6.528;2024-03-22T11:03:20;9.13;;;4.95;;
52964;SDS011;42923;53.220;6.528;2024-03-22T11:05:50;5.55;;;3.15;;
52964;SDS011;42923;53.220;6.528;2024-03-22T11:08:29;4.68;;;3.00;;
52964;SDS011;42923;53.220;6.528;2024-03-22T11:11:08;9.68;;;4.55;;
52964;SDS011;42923;53.220;6.528;2024-03-22T11:13:38;5.82;;;3.80;;
52964;SDS011;42923;53.220;6.528;2024-03-22T11:16:04;5.53;;;3.70;;
52964;SDS011;42923;53.220;6.528;2024-03-22T11:18:30;4.57;;;3.53;;
52964;SDS011;42923;53.220;6.528;2024-03-22T11:20:56;6.90;;;4.00;;
52964;SDS011;42923;53.220;6.528;2024-03-22T11:23:23;7.55;;;3.97;;
52964;SDS011;42923;53.220;6.528;2024-03-22T11:25:48;7.40;;;3.90;;
52964;SDS011;42923;53.220;6.528;2024-03-22T11:28:14;6.57;;;4.00;;
52964;SDS011;42923;53.220;6.528;2024-03-22T11:30:40;7.43;;;4.80;;
52964;SDS011;42923;53.220;6.528;2024-03-22T11:33:06;6.68;;;4.03;;
52964;SDS011;42923;53.220;6.528;2024-03-22T11:35:33;5.97;;;3.88;;
52964;SDS011;42923;53.220;6.528;2024-03-22T11:37:59;5.83;;;3.20;;
52964;SDS011;42923;53.220;6.528;2024-03-22T11:40:25;7.10;;;3.87;;
52964;SDS011;42923;53.220;6.528;2024-03-22T11:42:52;5.60;;;3.40;;
52964;SDS011;42923;53.220;6.528;2024-03-22T11:45:19;3.83;;;2.80;;
52964;SDS011;42923;53.220;6.528;2024-03-22T11:47:46;3.00;;;2.60;;
52964;SDS011;42923;53.220;6.528;2024-03-22T11:50:12;4.68;;;2.70;;
52964;SDS011;42923;53.220;6.528;2024-03-22T11:52:42;4.85;;;2.20;;
52964;SDS011;42923;53.220;6.528;2024-03-22T11:55:12;5.28;;;2.55;;
52964;SDS011;42923;53.220;6.528;2024-03-22T11:57:39;4.65;;;2.35;;
52964;SDS011;42923;53.220;6.528;2024-03-22T12:00:05;4.38;;;2.50;;
52964;SDS011;42923;53.220;6.528;2024-03-22T12:02:40;4.88;;;2.40;;
52964;SDS011;42923;53.220;6.528;2024-03-22T12:05:09;6.75;;;2.90;;
52964;SDS011;42923;53.220;6.528;2024-03-22T12:07:35;8.55;;;3.40;;
52964;SDS011;42923;53.220;6.528;2024-03-22T12:10:01;7.70;;;3.60;;
52964;SDS011;42923;53.220;6.528;2024-03-22T12:12:27;8.45;;;3.85;;
52964;SDS011;42923;53.220;6.528;2024-03-22T12:14:53;10.30;;;4.30;;
52964;SDS011;42923;53.220;6.528;2024-03-22T12:17:18;11.48;;;4.68;;
52964;SDS011;42923;53.220;6.528;2024-03-22T12:19:44;8.80;;;4.10;;
52964;SDS011;42923;53.220;6.528;2024-03-22T12:22:10;10.20;;;4.45;;
52964;SDS011;42923;53.220;6.528;2024-03-22T12:24:36;12.35;;;4.28;;
52964;SDS011;42923;53.220;6.528;2024-03-22T12:27:02;9.77;;;3.97;;
52964;SDS011;42923;53.220;6.528;2024-03-22T12:29:28;11.63;;;4.60;;
52964;SDS011;42923;53.220;6.528;2024-03-22T12:31:54;9.57;;;3.95;;
52964;SDS011;42923;53.220;6.528;2024-03-22T12:34:19;6.65;;;4.25;;
52964;SDS011;42923;53.220;6.528;2024-03-22T12:36:45;7.20;;;4.40;;
52964;SDS011;42923;53.220;6.528;2024-03-22T12:39:11;7.37;;;3.87;;
52964;SDS011;42923;53.220;6.528;2024-03-22T12:41:37;7.77;;;4.30;;
52964;SDS011;42923;53.220;6.528;2024-03-22T12:44:03;6.80;;;4.17;;
52964;SDS011;42923;53.220;6.528;2024-03-22T12:46:29;10.17;;;5.03;;
52964;SDS011;42923;53.220;6.528;2024-03-22T12:48:54;8.70;;;4.63;;
52964;SDS011;42923;53.220;6.528;2024-03-22T12:51:20;8.73;;;4.72;;
52964;SDS011;42923;53.220;6.528;2024-03-22T12:53:46;9.20;;;4.90;;
52964;SDS011;42923;53.220;6.528;2024-03-22T12:56:12;8.35;;;4.80;;
52964;SDS011;42923;53.220;6.528;2024-03-22T12:58:38;12.32;;;5.80;;
52964;SDS011;42923;53.220;6.528;2024-03-22T13:01:04;11.13;;;5.20;;
52964;SDS011;42923;53.220;6.528;2024-03-22T13:03:31;11.43;;;4.78;;
52964;SDS011;42923;53.220;6.528;2024-03-22T13:05:57;13.80;;;5.13;;
52964;SDS011;42923;53.220;6.528;2024-03-22T13:08:23;12.17;;;5.00;;
52964;SDS011;42923;53.220;6.528;2024-03-22T13:10:49;10.30;;;4.83;;
52964;SDS011;42923;53.220;6.528;2024-03-22T13:13:14;15.75;;;4.95;;
52964;SDS011;42923;53.220;6.528;2024-03-22T13:15:44;12.25;;;5.07;;
52964;SDS011;42923;53.220;6.528;2024-03-22T13:18:15;13.85;;;5.63;;
52964;SDS011;42923;53.220;6.528;2024-03-22T13:20:40;12.33;;;5.63;;
52964;SDS011;42923;53.220;6.528;2024-03-22T13:23:06;15.70;;;5.73;;
52964;SDS011;42923;53.220;6.528;2024-03-22T13:25:34;16.17;;;5.60;;
52964;SDS011;42923;53.220;6.528;2024-03-22T13:28:02;21.93;;;6.33;;
52964;SDS011;42923;53.220;6.528;2024-03-22T13:30:30;15.77;;;5.70;;
52964;SDS011;42923;53.220;6.528;2024-03-22T13:32:56;16.17;;;5.57;;
52964;SDS011;42923;53.220;6.528;2024-03-22T13:35:22;16.20;;;6.10;;
52964;SDS011;42923;53.220;6.528;2024-03-22T13:37:48;13.93;;;5.85;;
52964;SDS011;42923;53.220;6.528;2024-03-22T13:40:14;19.97;;;6.47;;
52964;SDS011;42923;53.220;6.528;2024-03-22T13:42:41;16.90;;;6.30;;
52964;SDS011;42923;53.220;6.528;2024-03-22T13:45:06;17.23;;;5.90;;
52964;SDS011;42923;53.220;6.528;2024-03-22T13:47:33;17.83;;;6.22;;
52964;SDS011;42923;53.220;6.528;2024-03-22T13:49:59;14.63;;;5.60;;
52964;SDS011;42923;53.220;6.528;2024-03-22T13:52:24;15.35;;;5.40;;
52964;SDS011;42923;53.220;6.528;2024-03-22T13:54:51;15.15;;;5.57;;
52964;SDS011;42923;53.220;6.528;2024-03-22T13:57:16;12.90;;;5.22;;
52964;SDS011;42923;53.220;6.528;2024-03-22T13:59:42;17.35;;;5.32;;
52964;SDS011;42923;53.220;6.528;2024-03-22T14:02:09;15.80;;;5.93;;
52964;SDS011;42923;53.220;6.528;2024-03-22T14:04:35;14.77;;;5.53;;
52964;SDS011;42923;53.220;6.528;2024-03-22T14:07:01;17.42;;;6.32;;
52964;SDS011;42923;53.220;6.528;2024-03-22T14:09:32;15.38;;;5.85;;
52964;SDS011;42923;53.220;6.528;2024-03-22T14:12:01;19.70;;;6.30;;
52964;SDS011;42923;53.220;6.528;2024-03-22T14:14:27;19.73;;;6.43;;
52964;SDS011;42923;53.220;6.528;2024-03-22T14:16:54;16.80;;;5.33;;
52964;SDS011;42923;53.220;6.528;2024-03-22T14:19:20;14.27;;;5.05;;
52964;SDS011;42923;53.220;6.528;2024-03-22T14:21:45;20.13;;;6.07;;